الصفحة الرئيسية
METAR-TAF:

METAR-TAF

مطار :

مطار رييكا

رييكا, كرواتيا

دائرة عرض: 45-13N, خط طول: 014-35E, ارتفاع: 85 متر

مراقبة الطقس الحالي

تاريخ ووقت الإصدار 30 دقيقة قبل الساعة 06:00UTC
ريح 4 عقدةمن اتجاهات متغيرة
درجة الحرارة 16°درجة مئوية
الرطوبة 31%
ضغط 1025 hPa
الرؤية 10 كم أو أكثر
الغيوم لا تقل 1500 م ولا وجود لمزنة ركامية السحاب الأسود

METAR: LDRI 060600Z VRB04KT CAVOK 16/M01 Q1025

زمن: 08:30 (06:30 UTC)

توقعات

تاريخ ووقت الإصدار 1ساعة و 5 دقيقة قبل الساعة 05:25UTC
التوقعات صالحة من06 الساعة 06 UTC إلى 07 الساعة 06 UTC
ريح 10 عقدة من الشرق
الرؤية 10 كم أو أكثر
الغيوم لا تقل 1500 م ولا وجود لمزنة ركامية السحاب الأسود
نظرية الاحتمالات 40% :
مؤقت
من 06 الساعة 06 UTC إلى 07 الساعة 06 UTC
ريح 15 عقدة من الشرق/الشمال الشرقي تتزايد حتى 25 عقدة
نظرية الاحتمالات 30% :
مؤقت
من 06 الساعة 06 UTC إلى 07 الساعة 06 UTC
ريح 10 عقدة من الشمال الغربي

TAF: LDRI 060525Z 0606/0706 08010KT CAVOK TX22/0613Z TN11/0705Z PROB40 TEMPO 0606/0706 06015G25KT PROB30 TEMPO 0606/0706 32010KT

أرصاد الطقس والتوقعات من أكثر من 4000 مطار (تقارير الطقس للمطار METAR والتنبؤ بالطقس بالمطارTAF).

المحطات المتاحة هي النقط الصفراء والحمراء على الخريطة.

حرك المؤشر فوق النقطة لمعرفة اسم المحطة.

ثم انقر لمعرفة أرصاد وتوقعات الطقس.

لتغيير الخارطة: اضغط على الأزرار الخضراء مع رمز الصليب الأسود للتكبير. على الزر الأخضر مع شرطة للتصغير، أو على الأسهم الخضراء للخرائط المجاورة.


METAR-TAF: